sensor_id;sensor_type;location;lat;lon;timestamp;pressure;altitude;pressure_sealevel;temperature;humidity
54948;BME280;41113;41.882;12.530;2023-05-01T00:00:49;100592.81;;;16.59;94.65
54948;BME280;41113;41.882;12.530;2023-05-01T00:03:15;100593.03;;;16.49;95.20
54948;BME280;41113;41.882;12.530;2023-05-01T00:05:45;100587.34;;;16.36;96.16
54948;BME280;41113;41.882;12.530;2023-05-01T00:08:11;100589.03;;;16.37;97.23
54948;BME280;41113;41.882;12.530;2023-05-01T00:10:37;100587.47;;;16.43;96.58
54948;BME280;41113;41.882;12.530;2023-05-01T00:13:03;100581.19;;;16.42;97.29
54948;BME280;41113;41.882;12.530;2023-05-01T00:15:31;100586.31;;;16.37;97.33
54948;BME280;41113;41.882;12.530;2023-05-01T00:17:56;100592.22;;;16.41;97.39
54948;BME280;41113;41.882;12.530;2023-05-01T00:20:26;100581.19;;;16.42;96.91
54948;BME280;41113;41.882;12.530;2023-05-01T00:22:53;100581.91;;;16.36;97.13
54948;BME280;41113;41.882;12.530;2023-05-01T00:25:21;100575.28;;;16.39;98.21
54948;BME280;41113;41.882;12.530;2023-05-01T00:27:47;100582.63;;;16.30;97.89
54948;BME280;41113;41.882;12.530;2023-05-01T00:30:14;100571.00;;;16.13;100.00
54948;BME280;41113;41.882;12.530;2023-05-01T00:32:40;100570.50;;;16.10;99.84
54948;BME280;41113;41.882;12.530;2023-05-01T00:35:05;100564.41;;;16.08;100.00
54948;BME280;41113;41.882;12.530;2023-05-01T00:37:31;100563.38;;;16.09;100.00
54948;BME280;41113;41.882;12.530;2023-05-01T00:39:57;100564.09;;;16.03;100.00
54948;BME280;41113;41.882;12.530;2023-05-01T00:42:22;100564.44;;;16.00;100.00
54948;BME280;41113;41.882;12.530;2023-05-01T00:44:47;100562.06;;;16.05;100.00
54948;BME280;41113;41.882;12.530;2023-05-01T00:47:13;100561.22;;;16.04;100.00
54948;BME280;41113;41.882;12.530;2023-05-01T00:49:41;100557.84;;;16.02;100.00
54948;BME280;41113;41.882;12.530;2023-05-01T00:52:07;100556.84;;;15.95;100.00
54948;BME280;41113;41.882;12.530;2023-05-01T00:54:35;100545.16;;;15.95;100.00
54948;BME280;41113;41.882;12.530;2023-05-01T00:57:04;100544.47;;;15.93;100.00
54948;BME280;41113;41.882;12.530;2023-05-01T00:59:30;100543.13;;;15.97;100.00
54948;BME280;41113;41.882;12.530;2023-05-01T01:01:56;100536.03;;;15.96;100.00
54948;BME280;41113;41.882;12.530;2023-05-01T01:04:24;100549.22;;;15.99;100.00
54948;BME280;41113;41.882;12.530;2023-05-01T01:07:00;100539.53;;;16.04;100.00
54948;BME280;41113;41.882;12.530;2023-05-01T01:09:34;100539.38;;;16.06;100.00
54948;BME280;41113;41.882;12.530;2023-05-01T01:12:19;100539.72;;;16.03;100.00
54948;BME280;41113;41.882;12.530;2023-05-01T01:18:11;100529.06;;;16.01;100.00
54948;BME280;41113;41.882;12.530;2023-05-01T01:23:46;100529.41;;;15.90;100.00
54948;BME280;41113;41.882;12.530;2023-05-01T01:29:39;100531.13;;;15.83;100.00
54948;BME280;41113;41.882;12.530;2023-05-01T01:32:30;100530.97;;;15.84;100.00
54948;BME280;41113;41.882;12.530;2023-05-01T01:35:13;100531.28;;;15.90;99.47
54948;BME280;41113;41.882;12.530;2023-05-01T01:37:49;100532.97;;;15.91;99.40
54948;BME280;41113;41.882;12.530;2023-05-01T01:40:26;100528.91;;;15.95;98.89
54948;BME280;41113;41.882;12.530;2023-05-01T01:42:57;100526.22;;;15.86;99.42
54948;BME280;41113;41.882;12.530;2023-05-01T01:45:35;100521.81;;;15.94;99.04
54948;BME280;41113;41.882;12.530;2023-05-01T01:48:01;100524.88;;;15.82;99.33
54948;BME280;41113;41.882;12.530;2023-05-01T01:50:31;100526.91;;;15.80;99.59
54948;BME280;41113;41.882;12.530;2023-05-01T01:52:59;100527.28;;;15.77;100.00
54948;BME280;41113;41.882;12.530;2023-05-01T01:55:28;100528.97;;;15.78;99.76
54948;BME280;41113;41.882;12.530;2023-05-01T01:57:55;100523.19;;;15.81;100.00
54948;BME280;41113;41.882;12.530;2023-05-01T02:00:22;100512.72;;;15.78;100.00
54948;BME280;41113;41.882;12.530;2023-05-01T02:02:50;100520.78;;;15.86;99.83
54948;BME280;41113;41.882;12.530;2023-05-01T02:05:18;100527.41;;;15.84;99.44
54948;BME280;41113;41.882;12.530;2023-05-01T02:07:48;100522.84;;;15.84;99.43
54948;BME280;41113;41.882;12.530;2023-05-01T02:10:15;100520.78;;;15.86;98.94
54948;BME280;41113;41.882;12.530;2023-05-01T02:12:43;100516.75;;;15.82;99.35
54948;BME280;41113;41.882;12.530;2023-05-01T02:15:10;100508.13;;;15.79;99.95
54948;BME280;41113;41.882;12.530;2023-05-01T02:17:37;100518.47;;;15.75;100.00
54948;BME280;41113;41.882;12.530;2023-05-01T02:20:06;100507.16;;;15.72;100.00
54948;BME280;41113;41.882;12.530;2023-05-01T02:22:34;100508.31;;;15.77;99.56
54948;BME280;41113;41.882;12.530;2023-05-01T02:25:01;100517.09;;;15.79;99.92
54948;BME280;41113;41.882;12.530;2023-05-01T02:27:34;100507.78;;;15.82;99.37
54948;BME280;41113;41.882;12.530;2023-05-01T02:30:02;100502.88;;;15.85;99.14
54948;BME280;41113;41.882;12.530;2023-05-01T02:32:29;100511.03;;;15.77;99.65
54948;BME280;41113;41.882;12.530;2023-05-01T02:34:56;100510.88;;;15.71;100.00
54948;BME280;41113;41.882;12.530;2023-05-01T02:37:22;100505.81;;;15.68;100.00
54948;BME280;41113;41.882;12.530;2023-05-01T02:39:48;100490.91;;;15.72;100.00
54948;BME280;41113;41.882;12.530;2023-05-01T02:42:14;100495.31;;;15.73;100.00
54948;BME280;41113;41.882;12.530;2023-05-01T02:44:54;100496.81;;;15.75;100.00
54948;BME280;41113;41.882;12.530;2023-05-01T02:47:22;100494.78;;;15.77;100.00
54948;BME280;41113;41.882;12.530;2023-05-01T02:49:48;100488.38;;;15.70;100.00
54948;BME280;41113;41.882;12.530;2023-05-01T02:52:16;100480.44;;;15.69;100.00
54948;BME280;41113;41.882;12.530;2023-05-01T02:54:45;100484.66;;;15.71;100.00
54948;BME280;41113;41.882;12.530;2023-05-01T02:57:12;100475.38;;;15.66;100.00
54948;BME280;41113;41.882;12.530;2023-05-01T02:59:37;100484.31;;;15.58;100.00
54948;BME280;41113;41.882;12.530;2023-05-01T03:02:04;100483.44;;;15.57;100.00
54948;BME280;41113;41.882;12.530;2023-05-01T03:04:30;100487.03;;;15.50;100.00
54948;BME280;41113;41.882;12.530;2023-05-01T03:06:56;100479.59;;;15.52;100.00
54948;BME280;41113;41.882;12.530;2023-05-01T03:09:22;100480.44;;;15.52;100.00
54948;BME280;41113;41.882;12.530;2023-05-01T03:11:47;100486.72;;;15.45;100.00
54948;BME280;41113;41.882;12.530;2023-05-01T03:14:13;100490.13;;;15.39;100.00
54948;BME280;41113;41.882;12.530;2023-05-01T03:16:39;100483.00;;;15.38;100.00
54948;BME280;41113;41.882;12.530;2023-05-01T03:19:05;100479.28;;;15.39;100.00
54948;BME280;41113;41.882;12.530;2023-05-01T03:21:31;100478.78;;;15.35;100.00
54948;BME280;41113;41.882;12.530;2023-05-01T03:23:58;100480.47;;;15.36;100.00
54948;BME280;41113;41.882;12.530;2023-05-01T03:26:24;100474.72;;;15.39;100.00
54948;BME280;41113;41.882;12.530;2023-05-01T03:28:49;100471.50;;;15.44;100.00
54948;BME280;41113;41.882;12.530;2023-05-01T03:31:15;100477.09;;;15.34;100.00
54948;BME280;41113;41.882;12.530;2023-05-01T03:33:40;100472.03;;;15.31;100.00
54948;BME280;41113;41.882;12.530;2023-05-01T03:36:07;100464.59;;;15.33;100.00
54948;BME280;41113;41.882;12.530;2023-05-01T03:38:35;100477.59;;;15.38;100.00
54948;BME280;41113;41.882;12.530;2023-05-01T03:41:00;100477.59;;;15.38;100.00
54948;BME280;41113;41.882;12.530;2023-05-01T03:43:25;100484.34;;;15.42;100.00
54948;BME280;41113;41.882;12.530;2023-05-01T03:45:51;100478.41;;;15.46;100.00
54948;BME280;41113;41.882;12.530;2023-05-01T03:48:18;100472.13;;;15.54;100.00
54948;BME280;41113;41.882;12.530;2023-05-01T03:50:43;100478.38;;;15.54;100.00
54948;BME280;41113;41.882;12.530;2023-05-01T03:53:09;100472.47;;;15.59;100.00
54948;BME280;41113;41.882;12.530;2023-05-01T03:55:34;100474.53;;;15.65;100.00
54948;BME280;41113;41.882;12.530;2023-05-01T03:58:00;100474.69;;;15.64;100.00
54948;BME280;41113;41.882;12.530;2023-05-01T04:00:26;100471.47;;;15.60;100.00
54948;BME280;41113;41.882;12.530;2023-05-01T04:02:53;100470.09;;;15.56;100.00
54948;BME280;41113;41.882;12.530;2023-05-01T04:05:22;100474.34;;;15.59;100.00
54948;BME280;41113;41.882;12.530;2023-05-01T04:07:47;100476.34;;;15.56;100.00
54948;BME280;41113;41.882;12.530;2023-05-01T04:10:13;100475.34;;;15.57;100.00
54948;BME280;41113;41.882;12.530;2023-05-01T04:12:39;100469.59;;;15.52;100.00
54948;BME280;41113;41.882;12.530;2023-05-01T04:15:05;100474.34;;;15.50;100.00
54948;BME280;41113;41.882;12.530;2023-05-01T04:17:31;100471.63;;;15.59;100.00
54948;BME280;41113;41.882;12.530;2023-05-01T04:19:57;100472.84;;;15.64;100.00
54948;BME280;41113;41.882;12.530;2023-05-01T04:22:22;100484.16;;;15.68;100.00
54948;BME280;41113;41.882;12.530;2023-05-01T04:24:49;100481.63;;;15.66;100.00
54948;BME280;41113;41.882;12.530;2023-05-01T04:27:16;100481.94;;;15.71;100.00
54948;BME280;41113;41.882;12.530;2023-05-01T04:29:44;100480.91;;;15.72;100.00
54948;BME280;41113;41.882;12.530;2023-05-01T04:32:09;100479.53;;;15.76;100.00
54948;BME280;41113;41.882;12.530;2023-05-01T04:34:35;100492.72;;;15.79;100.00
54948;BME280;41113;41.882;12.530;2023-05-01T04:37:01;100481.06;;;15.79;100.00
54948;BME280;41113;41.882;12.530;2023-05-01T04:39:27;100492.03;;;15.85;100.00
54948;BME280;41113;41.882;12.530;2023-05-01T04:41:53;100494.09;;;15.75;100.00
54948;BME280;41113;41.882;12.530;2023-05-01T04:44:19;100490.06;;;15.71;100.00
54948;BME280;41113;41.882;12.530;2023-05-01T04:46:44;100492.59;;;15.73;100.00
54948;BME280;41113;41.882;12.530;2023-05-01T04:49:10;100492.78;;;15.71;100.00
54948;BME280;41113;41.882;12.530;2023-05-01T04:51:35;100483.66;;;15.64;100.00
54948;BME280;41113;41.882;12.530;2023-05-01T04:54:01;100485.69;;;15.62;100.00
54948;BME280;41113;41.882;12.530;2023-05-01T04:56:29;100491.97;;;15.63;100.00
54948;BME280;41113;41.882;12.530;2023-05-01T04:58:54;100494.13;;;15.59;100.00
54948;BME280;41113;41.882;12.530;2023-05-01T05:01:20;100493.47;;;15.49;100.00
54948;BME280;41113;41.882;12.530;2023-05-01T05:03:45;100481.28;;;15.53;100.00
54948;BME280;41113;41.882;12.530;2023-05-01T05:06:11;100478.59;;;15.45;100.00
54948;BME280;41113;41.882;12.530;2023-05-01T05:08:36;100491.94;;;15.46;100.00
54948;BME280;41113;41.882;12.530;2023-05-01T05:11:01;100498.22;;;15.47;100.00
54948;BME280;41113;41.882;12.530;2023-05-01T05:13:27;100487.91;;;15.42;100.00
54948;BME280;41113;41.882;12.530;2023-05-01T05:15:54;100486.00;;;15.51;100.00
54948;BME280;41113;41.882;12.530;2023-05-01T05:18:19;100484.69;;;15.63;100.00
54948;BME280;41113;41.882;12.530;2023-05-01T05:20:46;100487.19;;;15.56;100.00
54948;BME280;41113;41.882;12.530;2023-05-01T05:23:11;100494.47;;;15.48;100.00
54948;BME280;41113;41.882;12.530;2023-05-01T05:25:37;100490.75;;;15.49;100.00
54948;BME280;41113;41.882;12.530;2023-05-01T05:28:03;100496.53;;;15.46;100.00
54948;BME280;41113;41.882;12.530;2023-05-01T05:30:28;100496.16;;;15.49;100.00
54948;BME280;41113;41.882;12.530;2023-05-01T05:32:54;100496.31;;;15.55;100.00
54948;BME280;41113;41.882;12.530;2023-05-01T05:35:19;100503.63;;;15.63;100.00
54948;BME280;41113;41.882;12.530;2023-05-01T05:37:45;100498.84;;;15.57;100.00
54948;BME280;41113;41.882;12.530;2023-05-01T05:40:11;100508.34;;;15.53;100.00
54948;BME280;41113;41.882;12.530;2023-05-01T05:42:36;100505.31;;;15.48;100.00
54948;BME280;41113;41.882;12.530;2023-05-01T05:45:02;100509.03;;;15.63;100.00
54948;BME280;41113;41.882;12.530;2023-05-01T05:47:27;100502.22;;;15.75;100.00
54948;BME280;41113;41.882;12.530;2023-05-01T05:49:52;100503.22;;;15.82;100.00
54948;BME280;41113;41.882;12.530;2023-05-01T05:52:19;100505.56;;;15.94;100.00
54948;BME280;41113;41.882;12.530;2023-05-01T05:54:45;100504.56;;;15.86;100.00
54948;BME280;41113;41.882;12.530;2023-05-01T05:57:11;100503.84;;;16.01;100.00
54948;BME280;41113;41.882;12.530;2023-05-01T05:59:36;100499.78;;;15.97;100.00
54948;BME280;41113;41.882;12.530;2023-05-01T06:02:02;100499.13;;;15.86;100.00
54948;BME280;41113;41.882;12.530;2023-05-01T06:04:27;100500.81;;;15.87;100.00
54948;BME280;41113;41.882;12.530;2023-05-01T06:06:53;100498.50;;;15.76;100.00
54948;BME280;41113;41.882;12.530;2023-05-01T06:09:18;100494.28;;;15.74;100.00
54948;BME280;41113;41.882;12.530;2023-05-01T06:11:44;100496.47;;;15.78;100.00
54948;BME280;41113;41.882;12.530;2023-05-01T06:14:10;100496.16;;;15.73;100.00
54948;BME280;41113;41.882;12.530;2023-05-01T06:16:36;100494.06;;;15.83;100.00
54948;BME280;41113;41.882;12.530;2023-05-01T06:19:01;100505.22;;;15.97;100.00
54948;BME280;41113;41.882;12.530;2023-05-01T06:21:27;100506.53;;;16.01;100.00
54948;BME280;41113;41.882;12.530;2023-05-01T06:23:52;100505.53;;;16.02;100.00
54948;BME280;41113;41.882;12.530;2023-05-01T06:26:18;100509.34;;;16.15;100.00
54948;BME280;41113;41.882;12.530;2023-05-01T06:28:43;100516.28;;;16.18;100.00
54948;BME280;41113;41.882;12.530;2023-05-01T06:31:10;100520.66;;;16.19;100.00
54948;BME280;41113;41.882;12.530;2023-05-01T06:33:39;100516.44;;;16.16;100.00
54948;BME280;41113;41.882;12.530;2023-05-01T06:36:05;100521.25;;;16.37;100.00
54948;BME280;41113;41.882;12.530;2023-05-01T06:38:30;100517.34;;;16.40;100.00
54948;BME280;41113;41.882;12.530;2023-05-01T06:41:02;100520.66;;;16.27;100.00
54948;BME280;41113;41.882;12.530;2023-05-01T06:43:29;100518.25;;;16.24;100.00
54948;BME280;41113;41.882;12.530;2023-05-01T06:45:56;100512.78;;;16.40;100.00
54948;BME280;41113;41.882;12.530;2023-05-01T06:48:23;100520.28;;;16.30;100.00
54948;BME280;41113;41.882;12.530;2023-05-01T06:50:51;100520.59;;;16.35;100.00
54948;BME280;41113;41.882;12.530;2023-05-01T06:53:16;100517.00;;;16.43;100.00
54948;BME280;41113;41.882;12.530;2023-05-01T06:55:41;100518.81;;;16.50;100.00
54948;BME280;41113;41.882;12.530;2023-05-01T06:58:07;100516.03;;;16.36;100.00
54948;BME280;41113;41.882;12.530;2023-05-01T07:00:35;100523.97;;;16.37;100.00
54948;BME280;41113;41.882;12.530;2023-05-01T07:03:07;100519.03;;;16.41;100.00
54948;BME280;41113;41.882;12.530;2023-05-01T07:05:35;100516.44;;;16.47;100.00
54948;BME280;41113;41.882;12.530;2023-05-01T07:08:01;100518.09;;;16.57;100.00
54948;BME280;41113;41.882;12.530;2023-05-01T07:10:26;100512.66;;;16.57;99.20
54948;BME280;41113;41.882;12.530;2023-05-01T07:12:53;100521.28;;;16.68;99.05
54948;BME280;41113;41.882;12.530;2023-05-01T07:15:18;100508.25;;;16.87;97.65
54948;BME280;41113;41.882;12.530;2023-05-01T07:17:44;100505.59;;;17.01;96.82
54948;BME280;41113;41.882;12.530;2023-05-01T07:20:10;100515.34;;;17.10;96.87
54948;BME280;41113;41.882;12.530;2023-05-01T07:22:36;100516.16;;;16.96;96.79
54948;BME280;41113;41.882;12.530;2023-05-01T07:25:02;100515.97;;;16.75;97.39
54948;BME280;41113;41.882;12.530;2023-05-01T07:27:27;100520.97;;;16.86;97.68
54948;BME280;41113;41.882;12.530;2023-05-01T07:29:54;100520.31;;;16.84;96.52
54948;BME280;41113;41.882;12.530;2023-05-01T07:32:21;100522.72;;;16.79;95.52
54948;BME280;41113;41.882;12.530;2023-05-01T07:34:47;100525.06;;;16.82;96.03
54948;BME280;41113;41.882;12.530;2023-05-01T07:37:12;100527.78;;;16.82;96.18
54948;BME280;41113;41.882;12.530;2023-05-01T07:39:37;100528.22;;;16.94;96.21
54948;BME280;41113;41.882;12.530;2023-05-01T07:42:03;100518.72;;;17.13;95.43
54948;BME280;41113;41.882;12.530;2023-05-01T07:44:28;100528.47;;;17.22;94.78
54948;BME280;41113;41.882;12.530;2023-05-01T07:46:53;100526.78;;;17.21;94.19
54948;BME280;41113;41.882;12.530;2023-05-01T07:49:19;100535.94;;;17.20;93.12
54948;BME280;41113;41.882;12.530;2023-05-01T07:51:44;100529.31;;;17.22;92.92
54948;BME280;41113;41.882;12.530;2023-05-01T07:54:10;100527.03;;;17.34;92.27
54948;BME280;41113;41.882;12.530;2023-05-01T07:56:36;100534.25;;;17.41;92.80
54948;BME280;41113;41.882;12.530;2023-05-01T07:59:01;100528.06;;;17.48;92.15
54948;BME280;41113;41.882;12.530;2023-05-01T08:01:27;100529.00;;;17.40;92.98
54948;BME280;41113;41.882;12.530;2023-05-01T08:03:53;100531.34;;;17.43;92.89
54948;BME280;41113;41.882;12.530;2023-05-01T08:06:18;100523.56;;;17.55;91.71
54948;BME280;41113;41.882;12.530;2023-05-01T08:08:43;100519.72;;;17.49;91.02
54948;BME280;41113;41.882;12.530;2023-05-01T08:11:10;100523.56;;;17.40;92.98
54948;BME280;41113;41.882;12.530;2023-05-01T08:13:36;100522.91;;;17.38;93.80
54948;BME280;41113;41.882;12.530;2023-05-01T08:16:02;100517.84;;;17.35;94.17
54948;BME280;41113;41.882;12.530;2023-05-01T08:18:28;100518.78;;;17.42;93.75
54948;BME280;41113;41.882;12.530;2023-05-01T08:20:54;100518.59;;;17.29;94.36
54948;BME280;41113;41.882;12.530;2023-05-01T08:23:19;100519.91;;;17.33;92.61
54948;BME280;41113;41.882;12.530;2023-05-01T08:25:44;100510.00;;;17.40;92.36
54948;BME280;41113;41.882;12.530;2023-05-01T08:28:12;100508.41;;;17.46;91.20
54948;BME280;41113;41.882;12.530;2023-05-01T08:30:37;100509.63;;;17.43;91.80
54948;BME280;41113;41.882;12.530;2023-05-01T08:33:02;100507.91;;;17.27;93.36
54948;BME280;41113;41.882;12.530;2023-05-01T08:35:28;100509.97;;;17.25;94.18
54948;BME280;41113;41.882;12.530;2023-05-01T08:37:53;100513.25;;;17.35;94.35
54948;BME280;41113;41.882;12.530;2023-05-01T08:40:20;100518.78;;;17.42;93.83
54948;BME280;41113;41.882;12.530;2023-05-01T08:42:47;100503.72;;;17.39;91.92
54948;BME280;41113;41.882;12.530;2023-05-01T08:45:14;100513.88;;;17.23;92.46
54948;BME280;41113;41.882;12.530;2023-05-01T08:47:40;100513.03;;;17.22;93.98
54948;BME280;41113;41.882;12.530;2023-05-01T08:50:10;100515.22;;;17.27;93.30
54948;BME280;41113;41.882;12.530;2023-05-01T08:52:41;100514.47;;;17.33;93.99
54948;BME280;41113;41.882;12.530;2023-05-01T08:55:12;100509.16;;;17.39;93.56
54948;BME280;41113;41.882;12.530;2023-05-01T08:57:38;100511.16;;;17.60;92.68
54948;BME280;41113;41.882;12.530;2023-05-01T09:00:06;100505.00;;;17.81;91.48
54948;BME280;41113;41.882;12.530;2023-05-01T09:02:33;100511.28;;;17.96;90.71
54948;BME280;41113;41.882;12.530;2023-05-01T09:05:00;100509.44;;;18.18;89.78
54948;BME280;41113;41.882;12.530;2023-05-01T09:07:26;100515.72;;;18.33;88.38
54948;BME280;41113;41.882;12.530;2023-05-01T09:09:51;100515.06;;;18.31;87.54
54948;BME280;41113;41.882;12.530;2023-05-01T09:12:21;100515.72;;;18.19;88.44
54948;BME280;41113;41.882;12.530;2023-05-01T09:14:57;100520.72;;;18.15;88.02
54948;BME280;41113;41.882;12.530;2023-05-01T09:17:36;100516.56;;;18.19;87.85
54948;BME280;41113;41.882;12.530;2023-05-01T09:20:02;100523.94;;;18.40;87.40
54948;BME280;41113;41.882;12.530;2023-05-01T09:22:32;100512.22;;;18.54;86.79
54948;BME280;41113;41.882;12.530;2023-05-01T09:24:58;100524.41;;;18.44;84.00
54948;BME280;41113;41.882;12.530;2023-05-01T09:27:25;100516.91;;;18.46;83.48
54948;BME280;41113;41.882;12.530;2023-05-01T09:29:51;100520.72;;;18.51;84.26
54948;BME280;41113;41.882;12.530;2023-05-01T09:34:45;100514.09;;;18.54;83.23
54948;BME280;41113;41.882;12.530;2023-05-01T09:37:30;100510.50;;;18.68;83.60
54948;BME280;41113;41.882;12.530;2023-05-01T09:40:10;100501.59;;;18.59;83.41
54948;BME280;41113;41.882;12.530;2023-05-01T09:42:38;100507.03;;;18.59;82.91
54948;BME280;41113;41.882;12.530;2023-05-01T09:45:11;100500.38;;;18.47;82.63
54948;BME280;41113;41.882;12.530;2023-05-01T09:47:37;100493.06;;;18.48;81.11
54948;BME280;41113;41.882;12.530;2023-05-01T09:50:02;100494.56;;;18.65;81.79
54948;BME280;41113;41.882;12.530;2023-05-01T09:52:29;100502.06;;;18.63;80.21
54948;BME280;41113;41.882;12.530;2023-05-01T09:55:17;100494.28;;;18.60;80.42
54948;BME280;41113;41.882;12.530;2023-05-01T09:57:44;100498.88;;;18.81;80.54
54948;BME280;41113;41.882;12.530;2023-05-01T10:00:10;100485.47;;;18.79;79.97
54948;BME280;41113;41.882;12.530;2023-05-01T10:02:37;100481.47;;;18.75;80.43
54948;BME280;41113;41.882;12.530;2023-05-01T10:05:04;100491.47;;;18.89;79.12
54948;BME280;41113;41.882;12.530;2023-05-01T10:07:30;100480.19;;;18.92;79.40
54948;BME280;41113;41.882;12.530;2023-05-01T10:09:56;100480.47;;;19.04;78.78
54948;BME280;41113;41.882;12.530;2023-05-01T10:12:25;100476.97;;;19.10;78.57
54948;BME280;41113;41.882;12.530;2023-05-01T10:14:55;100480.00;;;19.22;77.19
54948;BME280;41113;41.882;12.530;2023-05-01T10:17:22;100480.19;;;19.48;77.51
54948;BME280;41113;41.882;12.530;2023-05-01T10:19:48;100481.44;;;19.74;76.61
54948;BME280;41113;41.882;12.530;2023-05-01T10:22:14;100478.63;;;19.61;75.00
54948;BME280;41113;41.882;12.530;2023-05-01T10:24:40;100475.28;;;19.58;76.16
54948;BME280;41113;41.882;12.530;2023-05-01T10:27:06;100472.50;;;19.86;76.48
54948;BME280;41113;41.882;12.530;2023-05-01T10:29:33;100465.44;;;20.05;75.84
54948;BME280;41113;41.882;12.530;2023-05-01T10:32:04;100475.41;;;20.26;74.57
54948;BME280;41113;41.882;12.530;2023-05-01T10:34:34;100467.19;;;20.19;73.31
54948;BME280;41113;41.882;12.530;2023-05-01T10:37:08;100472.41;;;20.14;70.38
54948;BME280;41113;41.882;12.530;2023-05-01T10:39:37;100464.16;;;19.95;72.81
54948;BME280;41113;41.882;12.530;2023-05-01T10:42:06;100457.00;;;19.87;72.43
54948;BME280;41113;41.882;12.530;2023-05-01T10:44:38;100467.53;;;20.03;73.84
54948;BME280;41113;41.882;12.530;2023-05-01T10:50:11;100455.44;;;20.19;71.34
54948;BME280;41113;41.882;12.530;2023-05-01T10:55:43;100451.91;;;20.32;66.32
54948;BME280;41113;41.882;12.530;2023-05-01T10:58:13;100447.75;;;20.42;69.15
54948;BME280;41113;41.882;12.530;2023-05-01T11:00:39;100447.19;;;20.67;69.76
54948;BME280;41113;41.882;12.530;2023-05-01T11:08:32;100445.88;;;20.43;63.48
54948;BME280;41113;41.882;12.530;2023-05-01T11:13:58;100440.97;;;20.18;65.76
54948;BME280;41113;41.882;12.530;2023-05-01T11:21:32;100437.06;;;20.41;66.21
54948;BME280;41113;41.882;12.530;2023-05-01T11:23:59;100433.03;;;20.37;64.04
54948;BME280;41113;41.882;12.530;2023-05-01T11:26:24;100429.25;;;20.25;66.24
54948;BME280;41113;41.882;12.530;2023-05-01T11:28:53;100422.97;;;20.31;66.79
54948;BME280;41113;41.882;12.530;2023-05-01T11:31:20;100430.69;;;20.20;64.46
54948;BME280;41113;41.882;12.530;2023-05-01T11:33:45;100429.44;;;20.23;66.86
54948;BME280;41113;41.882;12.530;2023-05-01T11:36:11;100432.19;;;20.30;66.98
54948;BME280;41113;41.882;12.530;2023-05-01T11:38:48;100428.00;;;20.34;66.98
54948;BME280;41113;41.882;12.530;2023-05-01T11:41:13;100431.16;;;20.37;67.05
54948;BME280;41113;41.882;12.530;2023-05-01T11:46:26;100432.81;;;20.32;67.10
54948;BME280;41113;41.882;12.530;2023-05-01T11:48:52;100427.38;;;20.32;67.89
54948;BME280;41113;41.882;12.530;2023-05-01T11:51:18;100428.63;;;20.36;68.03
54948;BME280;41113;41.882;12.530;2023-05-01T11:54:06;100432.81;;;20.32;67.78
54948;BME280;41113;41.882;12.530;2023-05-01T11:56:33;100430.09;;;20.32;68.18
54948;BME280;41113;41.882;12.530;2023-05-01T11:59:08;100428.59;;;20.23;68.04
54948;BME280;41113;41.882;12.530;2023-05-01T12:01:35;100426.94;;;20.28;68.20
54948;BME280;41113;41.882;12.530;2023-05-01T12:04:02;100431.56;;;20.28;68.71
54948;BME280;41113;41.882;12.530;2023-05-01T12:06:40;100419.78;;;20.20;68.37
54948;BME280;41113;41.882;12.530;2023-05-01T12:09:17;100433.19;;;20.15;69.02
54948;BME280;41113;41.882;12.530;2023-05-01T12:11:44;100434.47;;;20.19;69.44
54948;BME280;41113;41.882;12.530;2023-05-01T12:14:10;100433.84;;;20.17;69.34
54948;BME280;41113;41.882;12.530;2023-05-01T12:16:36;100429.44;;;20.23;69.88
54948;BME280;41113;41.882;12.530;2023-05-01T12:19:05;100431.97;;;20.25;69.39
54948;BME280;41113;41.882;12.530;2023-05-01T12:21:30;100431.56;;;20.28;69.46
54948;BME280;41113;41.882;12.530;2023-05-01T12:24:06;100424.41;;;20.27;69.61
54948;BME280;41113;41.882;12.530;2023-05-01T12:26:31;100426.50;;;20.25;69.73
54948;BME280;41113;41.882;12.530;2023-05-01T12:28:58;100427.38;;;20.32;69.84
54948;BME280;41113;41.882;12.530;2023-05-01T12:31:25;100429.03;;;20.33;69.51
54948;BME280;41113;41.882;12.530;2023-05-01T12:34:00;100425.91;;;20.36;69.35
54948;BME280;41113;41.882;12.530;2023-05-01T12:36:28;100425.72;;;20.44;69.23
54948;BME280;41113;41.882;12.530;2023-05-01T12:41:32;100431.16;;;20.37;69.30
54948;BME280;41113;41.882;12.530;2023-05-01T12:43:59;100427.38;;;20.32;69.57
54948;BME280;41113;41.882;12.530;2023-05-01T12:46:25;100428.63;;;20.29;70.10
54948;BME280;41113;41.882;12.530;2023-05-01T12:48:51;100427.78;;;20.29;70.15
54948;BME280;41113;41.882;12.530;2023-05-01T12:51:20;100429.66;;;20.28;70.36
54948;BME280;41113;41.882;12.530;2023-05-01T12:53:46;100431.56;;;20.28;70.58
54948;BME280;41113;41.882;12.530;2023-05-01T12:56:22;100429.44;;;20.16;71.05
54948;BME280;41113;41.882;12.530;2023-05-01T12:58:49;100422.94;;;20.17;71.05
54948;BME280;41113;41.882;12.530;2023-05-01T13:01:26;100427.50;;;20.10;72.13
54948;BME280;41113;41.882;12.530;2023-05-01T13:03:52;100428.13;;;20.12;71.65
54948;BME280;41113;41.882;12.530;2023-05-01T13:06:18;100423.09;;;20.16;71.30
54948;BME280;41113;41.882;12.530;2023-05-01T13:08:44;100421.88;;;20.18;71.12
54948;BME280;41113;41.882;12.530;2023-05-01T13:11:15;100411.78;;;20.12;70.88
54948;BME280;41113;41.882;12.530;2023-05-01T13:13:42;100412.66;;;20.19;71.16